createdAt,value
2023-02-23T00:01:58.322Z,95171.28
2023-02-23T00:04:27.603Z,95126.84
2023-02-23T00:06:55.541Z,95167.72
2023-02-23T00:09:27.789Z,95186.22
2023-02-23T00:11:57.581Z,95189.50
2023-02-23T00:14:28.429Z,95185.06
2023-02-23T00:16:56.497Z,95164.69
2023-02-23T00:19:25.186Z,95190.53
2023-02-23T00:21:58.792Z,95184.91
2023-02-23T00:24:28.020Z,95194.13
2023-02-23T00:26:56.154Z,95193.31
2023-02-23T00:29:26.406Z,95189.19
2023-02-23T00:31:56.530Z,95186.63
2023-02-23T00:34:24.486Z,95187.38
2023-02-23T00:36:55.570Z,95188.38
2023-02-23T00:39:26.845Z,95193.31
2023-02-23T00:41:55.917Z,95191.34
2023-02-23T00:44:25.615Z,95145.28
2023-02-23T00:46:53.803Z,95180.53
2023-02-23T00:49:23.128Z,95136.72
2023-02-23T00:51:52.252Z,95190.44
2023-02-23T00:54:23.158Z,95186.09
2023-02-23T00:56:51.731Z,95184.78
2023-02-23T00:59:20.425Z,95191.63
2023-02-23T01:01:48.609Z,95185.47
2023-02-23T01:04:16.786Z,95113.13
2023-02-23T01:06:46.326Z,95112.78
2023-02-23T01:09:27.232Z,95178.03
2023-02-23T01:12:01.727Z,95184.63
2023-02-23T01:14:31.331Z,95184.72
2023-02-23T01:16:59.302Z,95182.94
2023-02-23T01:19:27.209Z,95180.19
2023-02-23T01:21:55.064Z,95186.34
2023-02-23T01:24:22.933Z,95175.44
2023-02-23T01:26:50.755Z,95177.91
2023-02-23T01:29:20.008Z,95144.69
2023-02-23T01:31:51.229Z,95163.66
2023-02-23T01:34:21.682Z,95182.88
2023-02-23T01:36:50.110Z,95183.69
2023-02-23T01:39:19.671Z,95195.75
2023-02-23T01:41:47.631Z,95178.16
2023-02-23T01:44:48.477Z,95178.31
2023-02-23T01:47:20.408Z,95174.63
2023-02-23T01:49:48.776Z,95182.06
2023-02-23T01:52:18.361Z,95170.50
2023-02-23T01:54:51.289Z,95179.59
2023-02-23T01:57:24.920Z,95179.22
2023-02-23T01:59:54.058Z,95168.47
2023-02-23T02:02:32.951Z,95180.41
2023-02-23T02:05:01.857Z,95169.31
2023-02-23T02:07:35.190Z,95173.28
2023-02-23T02:10:17.314Z,95174.34
2023-02-23T02:12:51.977Z,95177.75
2023-02-23T02:15:26.007Z,95175.19
2023-02-23T02:18:09.272Z,95122.00
2023-02-23T02:21:06.163Z,95175.97
2023-02-23T02:24:12.146Z,95177.38
2023-02-23T02:26:50.889Z,95183.81
2023-02-23T02:29:56.095Z,95175.59
2023-02-23T02:33:06.418Z,95187.19
2023-02-23T02:36:11.854Z,95186.19
2023-02-23T02:38:53.880Z,95184.13
2023-02-23T02:41:35.529Z,95188.47
2023-02-23T02:44:13.064Z,95176.59
2023-02-23T02:46:45.495Z,95180.06
2023-02-23T02:49:18.398Z,95173.84
2023-02-23T02:51:52.868Z,95175.41
2023-02-23T02:54:28.286Z,95184.44
2023-02-23T02:57:00.499Z,95178.81
2023-02-23T02:59:46.582Z,95104.31
2023-02-23T03:02:35.694Z,95179.38
2023-02-23T03:05:21.119Z,95167.31
2023-02-23T03:08:16.404Z,95129.91
2023-02-23T03:11:08.780Z,95177.00
2023-02-23T03:14:06.820Z,95184.19
2023-02-23T03:17:02.921Z,95187.66
2023-02-23T03:19:53.554Z,95120.75
2023-02-23T03:22:45.010Z,95133.22
2023-02-23T03:25:35.030Z,95172.91
2023-02-23T03:28:29.398Z,95189.63
2023-02-23T03:31:26.603Z,95183.78
2023-02-23T03:34:19.750Z,95166.94
2023-02-23T03:37:11.889Z,95194.09
2023-02-23T03:40:02.616Z,95196.44
2023-02-23T03:42:53.259Z,95178.31
2023-02-23T03:45:43.917Z,95202.75
2023-02-23T03:48:32.395Z,95201.78
2023-02-23T03:51:24.293Z,95223.31
2023-02-23T03:54:17.260Z,95212.22
2023-02-23T03:57:06.712Z,95216.81
2023-02-23T03:59:57.146Z,95207.94
2023-02-23T04:02:44.842Z,95197.28
2023-02-23T04:05:35.431Z,95212.94
2023-02-23T04:08:25.110Z,95220.25
2023-02-23T04:11:19.975Z,95220.63
2023-02-23T04:13:50.130Z,95213.69
2023-02-23T04:16:17.231Z,95216.78
2023-02-23T04:18:46.606Z,95211.78
2023-02-23T04:21:14.839Z,95210.19
2023-02-23T04:23:44.221Z,95204.41
2023-02-23T04:26:12.056Z,95208.75
2023-02-23T04:28:39.951Z,95212.88
2023-02-23T04:31:07.901Z,95200.97
2023-02-23T04:33:35.709Z,95211.19
2023-02-23T04:36:05.432Z,95209.81
2023-02-23T04:38:33.262Z,95213.16
2023-02-23T04:41:01.192Z,95213.25
2023-02-23T04:43:29.203Z,95213.59
2023-02-23T04:45:57.175Z,95202.81
2023-02-23T04:48:26.996Z,95216.66
2023-02-23T04:50:55.473Z,95215.78
2023-02-23T04:53:25.532Z,95214.91
2023-02-23T04:55:53.369Z,95195.69
2023-02-23T04:58:21.224Z,95154.84
2023-02-23T05:00:49.724Z,95214.63
2023-02-23T05:03:18.443Z,95222.44
2023-02-23T05:05:47.063Z,95219.66
2023-02-23T05:08:14.899Z,95212.44
2023-02-23T05:10:44.117Z,95222.53
2023-02-23T05:13:12.009Z,95218.34
2023-02-23T05:15:39.936Z,95204.75
2023-02-23T05:18:08.345Z,95220.44
2023-02-23T05:20:36.509Z,95225.44
2023-02-23T05:23:04.653Z,95225.13
2023-02-23T05:25:33.510Z,95230.63
2023-02-23T05:28:02.725Z,95216.25
2023-02-23T05:30:30.839Z,95231.53
2023-02-23T05:32:58.766Z,95227.59
2023-02-23T05:35:26.763Z,95236.03
2023-02-23T05:37:54.892Z,95228.75
2023-02-23T05:40:22.956Z,95243.50
2023-02-23T05:42:50.823Z,95209.16
2023-02-23T05:45:20.059Z,95246.47
2023-02-23T05:47:48.229Z,95250.50
2023-02-23T05:50:16.160Z,95214.94
2023-02-23T05:52:44.231Z,95254.78
2023-02-23T05:55:12.908Z,95242.81
2023-02-23T05:57:42.695Z,95258.50
2023-02-23T06:00:13.694Z,95257.66
2023-02-23T06:02:43.250Z,95259.00
2023-02-23T06:05:11.802Z,95250.72
2023-02-23T06:07:39.702Z,95260.69
2023-02-23T06:10:08.425Z,95271.13
2023-02-23T06:12:36.422Z,95270.19
2023-02-23T06:15:04.814Z,95262.34
2023-02-23T06:17:32.958Z,95266.13
2023-02-23T06:20:04.842Z,95263.47
2023-02-23T06:22:32.767Z,95274.34
2023-02-23T06:25:00.623Z,95281.91
2023-02-23T06:27:30.761Z,95279.75
2023-02-23T06:29:58.980Z,95277.88
2023-02-23T06:32:27.707Z,95278.06
2023-02-23T06:34:56.193Z,95276.75
2023-02-23T06:37:25.769Z,95280.38
2023-02-23T06:39:55.240Z,95292.31
2023-02-23T06:42:23.106Z,95262.84
2023-02-23T06:44:53.586Z,95288.19
2023-02-23T06:47:21.526Z,95288.22
2023-02-23T06:49:49.522Z,95288.81
2023-02-23T06:52:17.485Z,95290.22
2023-02-23T06:54:48.218Z,95295.44
2023-02-23T06:57:16.561Z,95279.25
2023-02-23T06:59:44.559Z,95291.88
2023-02-23T07:02:14.194Z,95233.94
2023-02-23T07:04:42.384Z,95294.72
2023-02-23T07:07:11.445Z,95280.34
2023-02-23T07:09:40.900Z,95287.91
2023-02-23T07:12:11.829Z,95291.84
2023-02-23T07:14:40.676Z,95290.34
2023-02-23T07:17:11.564Z,95287.56
2023-02-23T07:19:40.626Z,95287.19
2023-02-23T07:22:08.575Z,95293.00
2023-02-23T07:24:38.545Z,95234.25
2023-02-23T07:27:06.633Z,95261.00
2023-02-23T07:29:36.134Z,95277.06
2023-02-23T07:32:06.540Z,95286.34
2023-02-23T07:34:34.556Z,95272.72
2023-02-23T07:37:02.462Z,95275.41
2023-02-23T07:39:31.123Z,95251.94
2023-02-23T07:41:59.078Z,95267.88
2023-02-23T07:44:26.935Z,95281.75
2023-02-23T07:46:56.397Z,95281.69
2023-02-23T07:49:25.418Z,95274.78
2023-02-23T07:51:53.358Z,95265.16
2023-02-23T07:54:21.979Z,95270.34
2023-02-23T07:56:49.862Z,95263.69
2023-02-23T07:59:17.842Z,95270.34
2023-02-23T08:01:45.868Z,95261.03
2023-02-23T08:04:15.285Z,95270.47
2023-02-23T08:06:43.345Z,95267.38
2023-02-23T08:09:12.610Z,95270.19
2023-02-23T08:11:40.570Z,95256.44
2023-02-23T08:14:10.524Z,95266.88
2023-02-23T08:16:38.448Z,95263.38
2023-02-23T08:19:06.348Z,95258.13
2023-02-23T08:21:38.119Z,95251.66
2023-02-23T08:24:07.220Z,95252.44
2023-02-23T08:26:36.729Z,95264.31
2023-02-23T08:29:04.924Z,95259.53
2023-02-23T08:31:32.922Z,95262.84
2023-02-23T08:34:01.648Z,95254.00
2023-02-23T08:36:29.630Z,95262.38
2023-02-23T08:39:00.697Z,95257.91
2023-02-23T08:41:29.074Z,95232.78
2023-02-23T08:43:56.894Z,95255.78
2023-02-23T08:46:24.826Z,95224.03
2023-02-23T08:48:52.786Z,95247.81
2023-02-23T08:51:20.978Z,95254.44
2023-02-23T08:53:49.053Z,95256.31
2023-02-23T08:56:18.479Z,95249.22
2023-02-23T08:58:47.952Z,95231.66
2023-02-23T09:01:18.979Z,95247.94
2023-02-23T09:03:47.330Z,95237.22
2023-02-23T09:06:18.431Z,95244.56
2023-02-23T09:08:46.733Z,95252.31
2023-02-23T09:11:14.645Z,95249.28
2023-02-23T09:13:44.734Z,95235.94
2023-02-23T09:16:12.610Z,95240.22
2023-02-23T09:18:40.634Z,95232.34
2023-02-23T09:21:11.919Z,95206.13
2023-02-23T09:23:41.913Z,95242.31
2023-02-23T09:26:10.067Z,95215.41
2023-02-23T09:28:41.068Z,95238.34
2023-02-23T09:31:12.526Z,95241.06
2023-02-23T09:33:41.071Z,95240.47
2023-02-23T09:36:13.778Z,95228.63
2023-02-23T09:38:41.790Z,95232.81
2023-02-23T09:41:35.335Z,95237.69
2023-02-23T09:44:10.598Z,95157.06
2023-02-23T09:46:49.013Z,95237.75
2023-02-23T09:49:21.075Z,95232.91
2023-02-23T09:51:55.349Z,95235.25
2023-02-23T09:54:24.195Z,95230.59
2023-02-23T09:56:54.275Z,95235.41
2023-02-23T09:59:23.446Z,95224.84
2023-02-23T10:02:01.544Z,95217.38
2023-02-23T10:04:32.378Z,95212.78
2023-02-23T10:07:04.916Z,95207.69
2023-02-23T10:09:54.606Z,95214.84
2023-02-23T10:12:34.302Z,95218.34
2023-02-23T10:15:25.331Z,95217.00
2023-02-23T10:18:05.098Z,95209.91
2023-02-23T10:20:45.247Z,95172.38
2023-02-23T10:23:17.978Z,95210.88
2023-02-23T10:25:50.882Z,95206.88
2023-02-23T10:28:22.408Z,95155.88
2023-02-23T10:30:51.500Z,95192.47
2023-02-23T10:33:25.407Z,95186.16
2023-02-23T10:36:12.503Z,95190.00
2023-02-23T10:38:41.979Z,95188.97
2023-02-23T10:41:14.712Z,95188.25
2023-02-23T10:43:43.022Z,95184.53
2023-02-23T10:46:21.316Z,95163.16
2023-02-23T10:48:52.065Z,95177.81
2023-02-23T10:51:26.278Z,95031.53
2023-02-23T10:53:54.329Z,95175.84
2023-02-23T10:56:26.156Z,95164.72
2023-02-23T10:58:56.539Z,95147.22
2023-02-23T11:01:41.882Z,95157.00
2023-02-23T11:04:23.103Z,95153.03
2023-02-23T11:06:53.162Z,95152.59
2023-02-23T11:09:41.288Z,95070.56
2023-02-23T11:12:22.906Z,95147.16
2023-02-23T11:14:51.925Z,95129.09
2023-02-23T11:17:29.515Z,95142.34
2023-02-23T11:20:08.973Z,95144.47
2023-02-23T11:22:44.513Z,95144.50
2023-02-23T11:25:17.740Z,95136.25
2023-02-23T11:27:51.484Z,95136.28
2023-02-23T11:30:24.525Z,95109.56
2023-02-23T11:32:54.422Z,95125.19
2023-02-23T11:35:32.292Z,95111.09
2023-02-23T11:38:00.561Z,95081.16
2023-02-23T11:40:31.488Z,95074.50
2023-02-23T11:43:09.455Z,95065.09
2023-02-23T11:45:45.880Z,95118.97
2023-02-23T11:48:23.448Z,95116.69
2023-02-23T11:50:54.321Z,95101.09
2023-02-23T11:53:29.634Z,95105.00
2023-02-23T11:56:02.670Z,95093.22
2023-02-23T11:58:40.459Z,95101.41
2023-02-23T12:01:12.420Z,95078.75
2023-02-23T12:03:47.898Z,95092.34
2023-02-23T12:06:31.095Z,95098.34
2023-02-23T12:09:06.560Z,95097.16
2023-02-23T12:11:40.833Z,95105.75
2023-02-23T12:14:13.646Z,95097.53
2023-02-23T12:16:45.056Z,95094.06
2023-02-23T12:19:25.613Z,95096.03
2023-02-23T12:22:03.746Z,95090.50
2023-02-23T12:24:43.744Z,95081.50
2023-02-23T12:27:17.177Z,95069.06
2023-02-23T12:30:10.980Z,95074.50
2023-02-23T12:32:51.221Z,95087.78
2023-02-23T12:35:24.788Z,95076.44
2023-02-23T12:38:01.326Z,95081.03
2023-02-23T12:40:33.943Z,95080.72
2023-02-23T12:43:08.663Z,95084.22
2023-02-23T12:45:46.326Z,95084.94
2023-02-23T12:48:29.846Z,95077.53
2023-02-23T12:51:00.182Z,95078.38
2023-02-23T12:53:39.628Z,95029.13
2023-02-23T12:56:33.972Z,95082.28
2023-02-23T12:59:20.244Z,95072.16
2023-02-23T13:01:54.130Z,95073.72
2023-02-23T13:04:58.455Z,95074.53
2023-02-23T13:07:34.711Z,95068.22
2023-02-23T13:10:17.341Z,95041.56
2023-02-23T13:12:55.324Z,95069.72
2023-02-23T13:15:31.364Z,95061.53
2023-02-23T13:18:10.547Z,95070.06
2023-02-23T13:20:42.490Z,95068.91
2023-02-23T13:23:21.832Z,95068.91
2023-02-23T13:26:00.663Z,95049.38
2023-02-23T13:28:39.578Z,95003.22
2023-02-23T13:31:20.704Z,95058.41
2023-02-23T13:33:50.444Z,95051.38
2023-02-23T13:36:20.647Z,95053.34
2023-02-23T13:39:17.936Z,95053.22
2023-02-23T13:41:53.540Z,95046.16
2023-02-23T13:44:28.233Z,95053.97
2023-02-23T13:47:01.373Z,95054.31
2023-02-23T13:49:39.840Z,95037.84
2023-02-23T13:52:30.546Z,94989.72
2023-02-23T13:55:03.996Z,95007.66
2023-02-23T13:57:35.427Z,95070.16
2023-02-23T14:00:04.441Z,94911.69
2023-02-23T14:02:37.677Z,95065.44
2023-02-23T14:05:14.180Z,95031.75
2023-02-23T14:07:46.717Z,95060.09
2023-02-23T14:10:21.180Z,95050.75
2023-02-23T14:13:26.200Z,95079.47
2023-02-23T14:16:12.108Z,95080.13
2023-02-23T14:18:56.016Z,95073.03
2023-02-23T14:21:31.535Z,95076.69
2023-02-23T14:24:06.606Z,95062.56
2023-02-23T14:26:43.864Z,95077.81
2023-02-23T14:29:29.347Z,95085.88
2023-02-23T14:32:04.187Z,95066.69
2023-02-23T14:34:58.264Z,95082.00
2023-02-23T14:37:32.100Z,95060.25
2023-02-23T14:40:10.963Z,95087.53
2023-02-23T14:42:40.144Z,95088.19
2023-02-23T14:45:20.559Z,95080.25
2023-02-23T14:47:52.259Z,95081.69
2023-02-23T14:50:27.377Z,95086.13
2023-02-23T14:52:57.937Z,95096.72
2023-02-23T14:55:29.418Z,95096.41
2023-02-23T14:57:58.388Z,95096.97
2023-02-23T15:00:32.658Z,95106.13
2023-02-23T15:03:03.017Z,95101.53
2023-02-23T15:05:32.813Z,95099.41
2023-02-23T15:08:02.460Z,95109.28
2023-02-23T15:10:35.341Z,95103.56
2023-02-23T15:13:11.456Z,95115.78
2023-02-23T15:15:45.989Z,95104.69
2023-02-23T15:18:23.070Z,95107.50
2023-02-23T15:20:51.964Z,95109.41
2023-02-23T15:23:21.533Z,95135.69
2023-02-23T15:25:51.324Z,95132.72
2023-02-23T15:28:24.077Z,95139.41
2023-02-23T15:30:55.326Z,95139.53
2023-02-23T15:33:28.622Z,95148.28
2023-02-23T15:36:03.482Z,95155.38
2023-02-23T15:38:43.483Z,95170.66
2023-02-23T15:41:18.916Z,95165.00
2023-02-23T15:43:47.204Z,95163.94
2023-02-23T15:46:31.994Z,95164.44
2023-02-23T15:49:03.420Z,95172.41
2023-02-23T15:51:37.165Z,95178.06
2023-02-23T15:54:14.167Z,95181.28
2023-02-23T15:56:46.999Z,95193.13
2023-02-23T15:59:21.954Z,95190.59
2023-02-23T16:01:55.064Z,95195.81
2023-02-23T16:04:33.240Z,95201.91
2023-02-23T16:07:16.438Z,95191.38
2023-02-23T16:09:50.729Z,95169.34
2023-02-23T16:12:22.570Z,95190.16
2023-02-23T16:14:55.181Z,95192.34
2023-02-23T16:17:30.730Z,95189.91
2023-02-23T16:20:12.997Z,95198.47
2023-02-23T16:22:48.441Z,95209.75
2023-02-23T16:25:22.031Z,95208.75
2023-02-23T16:27:59.693Z,95154.88
2023-02-23T16:30:37.621Z,95218.31
2023-02-23T16:33:19.233Z,95228.22
2023-02-23T16:35:49.549Z,95227.22
2023-02-23T16:38:27.903Z,95188.66
2023-02-23T16:40:56.001Z,95227.56
2023-02-23T16:43:23.896Z,95231.28
2023-02-23T16:45:52.061Z,95184.69
2023-02-23T16:48:21.310Z,95236.81
2023-02-23T16:50:50.620Z,95240.84
2023-02-23T16:53:18.637Z,95251.84
2023-02-23T16:55:50.197Z,95242.84
2023-02-23T16:58:20.840Z,95203.91
2023-02-23T17:00:49.112Z,95259.47
2023-02-23T17:03:21.439Z,95248.34
2023-02-23T17:05:50.704Z,95256.88
2023-02-23T17:08:19.289Z,95259.81
2023-02-23T17:10:50.669Z,95258.75
2023-02-23T17:13:20.713Z,95277.06
2023-02-23T17:15:52.354Z,95256.16
2023-02-23T17:20:56.078Z,95224.22
2023-02-23T17:23:26.972Z,95263.19
2023-02-23T17:25:55.845Z,95249.06
2023-02-23T17:28:23.832Z,95268.31
2023-02-23T17:30:51.782Z,95288.50
2023-02-23T17:33:20.228Z,95277.78
2023-02-23T17:35:48.179Z,95271.16
2023-02-23T17:38:23.429Z,95282.34
2023-02-23T17:40:51.909Z,95286.34
2023-02-23T17:43:21.254Z,95279.06
2023-02-23T17:45:50.383Z,95278.81
2023-02-23T17:48:18.750Z,95288.22
2023-02-23T17:50:46.861Z,95296.03
2023-02-23T17:53:14.816Z,95274.97
2023-02-23T17:55:44.061Z,95289.91
2023-02-23T17:58:14.104Z,95274.41
2023-02-23T18:00:41.953Z,95299.28
2023-02-23T18:03:09.882Z,95280.63
2023-02-23T18:05:37.933Z,95274.16
2023-02-23T18:08:06.042Z,95283.03
2023-02-23T18:10:37.695Z,95217.22
2023-02-23T18:13:07.554Z,95278.41
2023-02-23T18:15:35.661Z,95267.53
2023-02-23T18:18:04.885Z,95264.09
2023-02-23T18:20:33.177Z,95287.19
2023-02-23T18:23:02.281Z,95295.44
2023-02-23T18:25:31.725Z,95299.41
2023-02-23T18:28:00.065Z,95290.22
2023-02-23T18:30:29.620Z,95298.16
2023-02-23T18:33:00.530Z,95260.75
2023-02-23T18:35:28.694Z,95299.28
2023-02-23T18:37:56.712Z,95290.75
2023-02-23T18:40:26.241Z,95302.16
2023-02-23T18:42:54.184Z,95290.75
2023-02-23T18:45:23.881Z,95318.78
2023-02-23T18:47:53.190Z,95319.75
2023-02-23T18:50:21.829Z,95318.63
2023-02-23T18:52:51.415Z,95304.69
2023-02-23T18:55:19.809Z,95322.88
2023-02-23T18:57:49.600Z,95253.38
2023-02-23T19:00:18.761Z,95313.25
2023-02-23T19:02:47.518Z,95312.94
2023-02-23T19:05:21.037Z,95165.88
2023-02-23T19:07:49.918Z,95320.72
2023-02-23T19:10:18.039Z,95318.34
2023-02-23T19:12:45.903Z,95336.84
2023-02-23T19:15:14.180Z,95348.41
2023-02-23T19:17:44.603Z,95290.19
2023-02-23T19:20:14.662Z,95327.69
2023-02-23T19:22:45.824Z,95337.78
2023-02-23T19:25:15.118Z,95341.91
2023-02-23T19:27:43.390Z,95351.38
2023-02-23T19:30:12.974Z,95339.22
2023-02-23T19:32:44.932Z,95352.13
2023-02-23T19:35:15.797Z,95367.31
2023-02-23T19:37:53.086Z,95335.69
2023-02-23T19:40:24.010Z,95370.94
2023-02-23T19:42:53.231Z,95366.19
2023-02-23T19:45:22.378Z,95349.91
2023-02-23T19:47:53.177Z,95347.34
2023-02-23T19:50:22.522Z,95364.91
2023-02-23T19:52:51.838Z,95371.50
2023-02-23T19:55:20.974Z,95359.88
2023-02-23T19:57:49.078Z,95369.34
2023-02-23T20:00:18.021Z,95372.31
2023-02-23T20:02:47.726Z,95378.47
2023-02-23T20:05:17.710Z,95377.53
2023-02-23T20:07:46.061Z,95378.63
2023-02-23T20:10:16.284Z,95368.81
2023-02-23T20:12:45.291Z,95383.34
2023-02-23T20:15:15.239Z,95379.88
2023-02-23T20:17:43.717Z,95387.94
2023-02-23T21:25:00.406Z,95386.88
2023-02-23T21:27:28.612Z,95391.44
2023-02-23T21:29:56.421Z,95367.78
2023-02-23T21:32:27.118Z,95378.81
2023-02-23T21:34:55.088Z,95366.81
2023-02-23T21:37:22.954Z,95371.38
2023-02-23T21:39:51.238Z,95376.13
2023-02-23T21:42:23.022Z,95383.38
2023-02-23T21:44:51.750Z,95378.81
2023-02-23T21:47:19.616Z,95376.47
2023-02-23T21:49:49.422Z,95387.00
2023-02-23T21:52:17.856Z,95385.44
2023-02-23T21:54:51.541Z,95353.28
2023-02-23T21:57:22.688Z,95377.53
2023-02-23T21:59:50.545Z,95363.50
2023-02-23T22:02:18.424Z,95347.78
2023-02-23T22:04:47.572Z,95382.28
2023-02-23T22:07:16.832Z,95375.31
2023-02-23T22:09:47.300Z,95372.28
2023-02-23T22:12:15.293Z,95396.00
2023-02-23T22:14:44.746Z,95375.44
2023-02-23T22:17:12.936Z,95372.31
2023-02-23T22:19:40.826Z,95370.41
2023-02-23T22:22:08.903Z,95364.25
2023-02-23T22:24:36.874Z,95375.78
2023-02-23T22:27:04.892Z,95380.69
2023-02-23T22:29:32.796Z,95382.88
2023-02-23T22:32:02.434Z,95385.91
2023-02-23T22:34:30.444Z,95378.94
2023-02-23T22:36:58.575Z,95382.69
2023-02-23T22:39:26.445Z,95391.53
2023-02-23T22:41:54.289Z,95375.78
2023-02-23T22:44:22.733Z,95365.63
2023-02-23T22:46:50.748Z,95385.72
2023-02-23T22:49:20.486Z,95394.84
2023-02-23T22:51:48.658Z,95321.00
2023-02-23T22:54:17.475Z,95382.06
2023-02-23T22:56:46.854Z,95365.13
2023-02-23T22:59:17.456Z,95377.47
2023-02-23T23:01:47.505Z,95373.81
2023-02-23T23:04:15.562Z,95375.72
2023-02-23T23:06:46.242Z,95381.88
2023-02-23T23:09:16.488Z,95366.34
2023-02-23T23:11:44.987Z,95385.34
2023-02-23T23:14:13.620Z,95385.69
2023-02-23T23:16:48.087Z,95319.84
2023-02-23T23:19:18.149Z,95376.34
2023-02-23T23:21:47.413Z,95357.22
2023-02-23T23:24:16.061Z,95373.66
2023-02-23T23:26:44.468Z,95374.28
2023-02-23T23:29:15.226Z,95365.13
2023-02-23T23:31:46.451Z,95353.56
2023-02-23T23:34:17.231Z,95378.53
2023-02-23T23:36:49.461Z,95364.16
2023-02-23T23:39:18.470Z,95369.53
2023-02-23T23:41:48.104Z,95360.38
2023-02-23T23:44:17.267Z,95364.75
2023-02-23T23:46:46.626Z,95327.09
2023-02-23T23:49:17.794Z,95360.16
2023-02-23T23:51:50.404Z,95359.03
2023-02-23T23:54:21.533Z,95376.25
2023-02-23T23:56:50.281Z,95362.97
2023-02-23T23:59:21.971Z,95342.13
